createdAt,value
2022-12-19T00:02:12.562Z,3.31
2022-12-19T00:07:15.490Z,3.34
2022-12-19T00:12:19.383Z,3.25
2022-12-19T00:17:23.140Z,3.10
2022-12-19T00:22:26.349Z,2.79
2022-12-19T00:27:29.196Z,2.84
2022-12-19T00:32:32.054Z,2.93
2022-12-19T00:37:35.235Z,3.20
2022-12-19T00:42:40.346Z,3.35
2022-12-19T00:47:43.166Z,3.37
2022-12-19T00:52:46.054Z,3.56
2022-12-19T00:57:49.914Z,3.53
2022-12-19T01:02:55.400Z,3.63
2022-12-19T01:07:58.372Z,3.86
2022-12-19T01:13:01.237Z,3.97
2022-12-19T01:18:04.125Z,3.69
2022-12-19T01:23:08.151Z,3.53
2022-12-19T01:28:14.806Z,3.46
2022-12-19T01:33:20.973Z,2.73
2022-12-19T01:38:23.828Z,2.25
2022-12-19T01:43:30.565Z,2.08
2022-12-19T01:48:40.008Z,2.06
2022-12-19T01:53:49.174Z,2.30
2022-12-19T01:59:05.971Z,2.39
2022-12-19T02:04:10.546Z,2.45
2022-12-19T02:09:13.727Z,2.61
2022-12-19T02:14:16.710Z,2.85
2022-12-19T02:19:19.510Z,3.02
2022-12-19T02:24:36.799Z,2.95
2022-12-19T02:29:49.585Z,2.30
2022-12-19T02:35:13.716Z,1.53
2022-12-19T02:40:24.386Z,2.07
2022-12-19T02:45:33.856Z,2.04
2022-12-19T02:50:39.040Z,2.31
2022-12-19T02:56:14.138Z,1.06
2022-12-19T03:01:29.372Z,0.58
2022-12-19T03:06:45.178Z,0.66
2022-12-19T03:11:56.134Z,-0.05
2022-12-19T03:17:04.845Z,0.37
2022-12-19T03:22:08.488Z,0.66
2022-12-19T03:27:39.448Z,0.74
2022-12-19T03:32:46.806Z,0.21
2022-12-19T03:37:52.184Z,-0.09
2022-12-19T03:43:09.690Z,0.12
2022-12-19T03:48:43.445Z,0.26
2022-12-19T03:53:56.476Z,0.59
2022-12-19T03:59:09.985Z,0.35
2022-12-19T04:04:14.854Z,0.37
2022-12-19T04:09:22.663Z,0.92
2022-12-19T04:14:31.924Z,0.87
2022-12-19T04:19:48.079Z,0.57
2022-12-19T04:24:54.118Z,0.55
2022-12-19T04:29:59.361Z,-0.00
2022-12-19T04:35:03.093Z,0.29
2022-12-19T04:40:08.338Z,-0.55
2022-12-19T04:45:11.410Z,-0.17
2022-12-19T04:50:14.594Z,-0.23
2022-12-19T04:55:17.580Z,-0.19
2022-12-19T05:00:20.430Z,0.23
2022-12-19T05:05:23.467Z,-0.26
2022-12-19T05:10:26.350Z,-0.22
2022-12-19T05:15:29.203Z,-1.02
2022-12-19T05:20:32.214Z,-0.58
2022-12-19T05:25:36.204Z,-0.58
2022-12-19T05:30:39.703Z,-1.07
2022-12-19T05:35:42.641Z,-0.71
2022-12-19T05:40:45.699Z,-0.68
2022-12-19T05:45:48.927Z,-0.95
2022-12-19T05:50:51.836Z,-1.43
2022-12-19T05:56:04.697Z,-1.83
2022-12-19T06:01:20.208Z,-1.66
2022-12-19T06:06:26.184Z,-2.38
2022-12-19T06:11:29.336Z,-2.26
2022-12-19T06:16:32.300Z,-2.16
2022-12-19T06:21:35.335Z,-1.89
2022-12-19T06:26:38.166Z,-2.57
2022-12-19T06:31:41.015Z,-1.87
2022-12-19T06:36:43.909Z,-1.59
2022-12-19T06:42:05.423Z,-2.01
2022-12-19T06:47:08.322Z,-2.06
2022-12-19T06:52:11.216Z,-1.94
2022-12-19T06:57:14.097Z,-1.67
2022-12-19T07:02:30.293Z,-1.87
2022-12-19T07:07:33.781Z,-1.71
2022-12-19T07:12:37.074Z,-2.22
2022-12-19T07:17:40.414Z,-1.91
2022-12-19T07:22:43.989Z,-1.92
2022-12-19T07:27:47.853Z,-1.67
2022-12-19T07:32:50.713Z,-1.52
2022-12-19T07:37:53.705Z,-0.78
2022-12-19T07:43:00.542Z,-0.35
2022-12-19T07:48:04.616Z,0.21
2022-12-19T07:53:07.511Z,0.87
2022-12-19T07:58:13.035Z,2.11
2022-12-19T08:03:15.901Z,3.74
2022-12-19T08:08:18.911Z,4.08
2022-12-19T08:13:21.735Z,4.27
2022-12-19T08:18:26.441Z,4.14
2022-12-19T08:23:29.544Z,4.25
2022-12-19T08:28:33.921Z,4.24
2022-12-19T08:33:37.395Z,4.29
2022-12-19T08:38:40.958Z,4.06
2022-12-19T08:43:49.463Z,4.46
2022-12-19T08:48:52.289Z,5.04
2022-12-19T08:53:55.175Z,4.83
2022-12-19T08:58:58.004Z,2.67
2022-12-19T09:05:07.778Z,1.16
2022-12-19T09:09:23.920Z,0.22
2022-12-19T09:14:26.836Z,-0.11
2022-12-19T09:19:29.701Z,-0.33
2022-12-19T09:24:33.038Z,0.16
2022-12-19T09:29:36.055Z,0.60
2022-12-19T09:34:39.297Z,1.23
2022-12-19T09:39:42.209Z,1.67
2022-12-19T09:45:06.984Z,2.55
2022-12-19T09:50:33.130Z,3.22
2022-12-19T09:55:40.823Z,4.05
2022-12-19T10:00:47.364Z,4.03
2022-12-19T10:06:49.249Z,5.06
2022-12-19T10:12:39.411Z,6.22
2022-12-19T10:17:35.023Z,7.02
2022-12-19T10:23:04.693Z,6.56
2022-12-19T10:28:39.267Z,6.05
2022-12-19T10:33:58.591Z,5.67
2022-12-19T10:39:15.241Z,6.24
2022-12-19T10:44:19.229Z,6.92
2022-12-19T10:49:28.477Z,7.25
2022-12-19T10:54:37.534Z,7.80
2022-12-19T10:59:40.439Z,8.16
2022-12-19T11:04:46.977Z,8.07
2022-12-19T11:10:16.189Z,7.63
2022-12-19T11:20:16.794Z,7.87
2022-12-19T11:29:30.141Z,7.47
2022-12-19T11:30:48.855Z,6.59
2022-12-19T11:36:52.641Z,6.48
2022-12-19T11:42:11.399Z,6.92
2022-12-19T11:47:33.904Z,6.65
2022-12-19T11:58:04.675Z,5.89
2022-12-19T12:03:41.620Z,6.18
2022-12-19T12:16:09.450Z,5.96
2022-12-19T12:24:23.237Z,6.06
2022-12-19T12:31:05.881Z,5.11
2022-12-19T12:31:20.456Z,4.24
2022-12-19T12:35:30.668Z,3.28
2022-12-19T12:38:19.074Z,1.85
2022-12-19T12:43:31.740Z,0.96
2022-12-19T12:48:43.115Z,0.67
2022-12-19T12:53:48.374Z,0.13
2022-12-19T12:58:54.628Z,-1.02
2022-12-19T13:04:12.677Z,-1.61
2022-12-19T13:09:28.029Z,-1.91
2022-12-19T13:14:39.471Z,-2.51
2022-12-19T13:19:57.183Z,-2.99
2022-12-19T13:25:01.222Z,-3.42
2022-12-19T13:30:15.946Z,-3.81
2022-12-19T13:36:49.995Z,-4.11
2022-12-19T13:40:44.990Z,-4.35
2022-12-19T13:46:03.716Z,-3.14
2022-12-19T13:51:08.724Z,-3.55
2022-12-19T13:56:17.881Z,-4.10
2022-12-19T14:01:28.330Z,-3.05
2022-12-19T14:06:42.938Z,-3.89
2022-12-19T14:12:26.484Z,-3.19
2022-12-19T14:17:13.561Z,-3.62
2022-12-19T14:22:25.199Z,-3.99
2022-12-19T14:28:21.570Z,-2.08
2022-12-19T14:33:44.325Z,-3.54
2022-12-19T14:39:24.523Z,-3.14
2022-12-19T14:52:35.958Z,-2.81
2022-12-19T14:54:10.727Z,-3.68
2022-12-19T14:55:58.912Z,-2.76
2022-12-19T15:01:10.040Z,-2.71
2022-12-19T15:06:32.211Z,-3.41
2022-12-19T15:14:50.492Z,-1.83
2022-12-19T15:17:49.113Z,-2.97
2022-12-19T15:22:51.957Z,-3.05
2022-12-19T15:27:55.310Z,-1.61
2022-12-19T15:32:58.392Z,-2.65
2022-12-19T15:38:01.297Z,-3.19
2022-12-19T15:43:04.972Z,-1.45
2022-12-19T15:48:13.875Z,-2.14
2022-12-19T15:53:39.983Z,-3.08
2022-12-19T15:58:43.776Z,-2.32
2022-12-19T16:03:47.685Z,-1.37
2022-12-19T16:08:50.643Z,-2.47
2022-12-19T16:13:56.921Z,-3.06
2022-12-19T16:18:59.758Z,-1.55
2022-12-19T16:24:02.631Z,-1.37
2022-12-19T16:29:06.654Z,-2.36
2022-12-19T16:34:17.216Z,-1.77
2022-12-19T16:39:20.163Z,-1.03
2022-12-19T16:44:23.871Z,-2.12
2022-12-19T16:49:28.119Z,-2.08
2022-12-19T16:54:31.039Z,-0.74
2022-12-19T16:59:40.175Z,-1.77
2022-12-19T17:04:46.349Z,-2.01
2022-12-19T17:09:51.856Z,-0.50
2022-12-19T17:14:54.848Z,-1.60
2022-12-19T17:19:57.685Z,-2.10
2022-12-19T17:25:00.773Z,-0.37
2022-12-19T17:30:03.979Z,-1.12
2022-12-19T17:35:07.132Z,-2.06
2022-12-19T17:40:31.581Z,-1.24
2022-12-19T17:45:35.064Z,0.07
2022-12-19T17:50:40.060Z,-1.22
2022-12-19T17:55:43.593Z,-2.02
2022-12-19T18:00:47.463Z,-0.68
2022-12-19T18:05:53.354Z,-0.19
2022-12-19T18:10:59.036Z,-1.43
2022-12-19T18:16:03.787Z,-1.68
2022-12-19T18:21:06.946Z,0.27
2022-12-19T18:26:12.040Z,-0.23
2022-12-19T18:31:18.919Z,-1.38
2022-12-19T18:36:24.857Z,-0.18
2022-12-19T18:41:27.782Z,0.38
2022-12-19T18:46:32.049Z,-1.02
2022-12-19T18:51:34.966Z,-1.09
2022-12-19T18:56:37.801Z,1.40
2022-12-19T19:01:46.942Z,0.52
2022-12-19T19:06:52.635Z,-0.93
2022-12-19T19:11:55.734Z,-0.48
2022-12-19T19:16:58.702Z,0.38
2022-12-19T19:22:01.659Z,-0.80
2022-12-19T19:27:04.591Z,-0.28
2022-12-19T19:32:07.749Z,1.57
2022-12-19T19:37:13.893Z,0.79
2022-12-19T19:42:18.808Z,-0.55
2022-12-19T19:47:28.779Z,-0.45
2022-12-19T19:52:31.559Z,1.56
2022-12-19T19:57:34.813Z,1.65
2022-12-19T20:02:37.935Z,0.27
2022-12-19T20:07:41.276Z,-0.58
2022-12-19T20:12:44.174Z,-0.33
2022-12-19T20:17:47.086Z,1.46
2022-12-19T20:22:50.044Z,1.23
2022-12-19T20:27:52.891Z,0.06
2022-12-19T20:32:55.723Z,0.30
2022-12-19T20:37:58.573Z,2.18
2022-12-19T20:43:02.265Z,1.76
2022-12-19T20:48:05.284Z,0.23
2022-12-19T20:53:08.475Z,0.45
2022-12-19T20:58:11.298Z,2.17
2022-12-19T21:03:28.067Z,1.96
2022-12-19T21:08:32.522Z,0.37
2022-12-19T21:13:36.624Z,1.66
2022-12-19T21:18:41.393Z,2.90
2022-12-19T21:23:45.007Z,1.63
2022-12-19T21:28:47.915Z,0.22
2022-12-19T21:33:54.706Z,1.16
2022-12-19T21:39:00.099Z,2.31
2022-12-19T21:44:03.135Z,2.66
2022-12-19T21:49:08.496Z,1.51
2022-12-19T21:54:11.364Z,1.25
2022-12-19T21:59:16.598Z,2.40
2022-12-19T22:04:22.240Z,2.90
2022-12-19T22:09:25.235Z,3.10
2022-12-19T22:14:28.221Z,2.99
2022-12-19T22:19:31.511Z,2.86
2022-12-19T22:24:34.420Z,2.93
2022-12-19T22:29:37.535Z,3.01
2022-12-19T22:34:40.357Z,3.19
2022-12-19T22:39:43.275Z,3.47
2022-12-19T22:44:46.188Z,3.60
2022-12-19T22:49:52.776Z,3.48
2022-12-19T22:54:55.678Z,3.50
2022-12-19T22:59:58.540Z,3.22
2022-12-19T23:05:01.355Z,3.52
2022-12-19T23:10:04.596Z,4.34
2022-12-19T23:15:07.766Z,5.36
2022-12-19T23:20:11.451Z,5.61
2022-12-19T23:25:14.294Z,5.62
2022-12-19T23:30:17.181Z,5.97
2022-12-19T23:35:20.037Z,5.74
2022-12-19T23:40:22.924Z,5.49
2022-12-19T23:45:25.790Z,5.42
2022-12-19T23:50:28.769Z,5.61
2022-12-19T23:55:31.581Z,5.35
